createdAt,value
2016-03-14T11:05:12.284Z,32.23
2016-03-14T11:06:12.037Z,32.73
2016-03-14T11:07:11.851Z,32.75
2016-03-14T11:08:11.776Z,32.28
2016-03-14T11:09:11.748Z,32.29
2016-03-14T11:10:12.078Z,32.6
2016-03-14T11:11:11.737Z,32.99
2016-03-14T11:12:11.864Z,33.87
2016-03-14T11:13:11.664Z,33.31
2016-03-14T11:14:11.636Z,33.99
2016-03-14T11:15:11.873Z,34.28
2016-03-14T11:16:11.610Z,34.67
2016-03-14T11:17:11.644Z,34.69
2016-03-14T11:18:11.553Z,34.99
2016-03-14T11:19:11.586Z,35.28
2016-03-14T11:20:11.558Z,35.19
2016-03-14T11:21:11.530Z,35.59
2016-03-14T11:22:11.504Z,35.88
2016-03-14T11:23:11.491Z,35.69
2016-03-14T11:24:11.493Z,35.71
2016-03-14T11:25:11.433Z,35.61
2016-03-14T11:26:11.483Z,35.9
2016-03-14T11:27:11.486Z,36.21
2016-03-14T11:28:11.535Z,35.92
2016-03-14T11:29:11.382Z,36.4
2016-03-14T11:30:11.541Z,36.4
2016-03-14T11:31:11.371Z,36.11
2016-03-14T11:32:11.344Z,36.4
2016-03-14T11:33:11.346Z,36.22
2016-03-14T11:34:11.365Z,36.52
2016-03-14T11:35:11.305Z,36.32
2016-03-14T11:36:11.338Z,36.22
2016-03-14T11:37:11.294Z,36.22
2016-03-14T11:38:11.265Z,36.32
2016-03-14T11:39:11.471Z,36.22
2016-03-14T11:40:11.521Z,36.13
2016-03-14T11:41:11.258Z,36.22
2016-03-14T11:45:57.959Z,36.13
2016-03-14T11:46:57.665Z,36.32
2016-03-14T11:47:57.464Z,36.13
2016-03-14T11:49:11.280Z,36.42
2016-03-14T11:49:57.470Z,36.32
2016-03-14T11:50:57.457Z,36.22
2016-03-14T11:51:57.444Z,36.13
2016-03-14T11:53:12.478Z,36.11
2016-03-14T11:53:57.714Z,36.3
2016-03-14T11:54:57.601Z,36.4
2016-03-14T11:55:57.361Z,35.92
2016-03-14T11:56:57.353Z,36.21
2016-03-14T11:57:57.346Z,36.11
2016-03-14T11:58:57.313Z,36.21
2016-03-14T11:59:57.279Z,36.11
2016-03-14T12:00:57.278Z,36.11
2016-03-14T12:01:57.277Z,36.21
2016-03-14T12:02:57.229Z,36.3
2016-03-14T12:03:57.228Z,36.21
2016-03-14T12:04:57.214Z,35.92
2016-03-14T12:05:57.199Z,36.1
2016-03-14T12:06:57.263Z,36.38
2016-03-14T12:07:57.172Z,36.19
2016-03-14T12:08:57.266Z,36.38
2016-03-14T12:09:57.143Z,36.48
2016-03-14T12:10:57.443Z,36.29
2016-03-14T12:11:57.086Z,36.19
2016-03-14T12:12:57.136Z,36.29
2016-03-14T12:13:57.074Z,36.38
2016-03-14T12:14:57.077Z,36.29
2016-03-14T12:15:57.048Z,36.27
2016-03-14T12:16:57.067Z,36.18
2016-03-14T12:17:57.131Z,36.36
2016-03-14T12:18:56.993Z,36.18
2016-03-14T12:19:57.027Z,36.18
2016-03-14T12:20:57.029Z,35.88
2016-03-14T12:21:56.985Z,36.27
2016-03-14T12:22:57.003Z,36.27
2016-03-14T12:23:57.007Z,36.46
2016-03-14T12:24:57.055Z,36.56
2016-03-14T12:25:57.105Z,36.36
2016-03-14T12:26:57.014Z,36.08
2016-03-14T12:27:56.938Z,35.86
2016-03-14T12:28:56.909Z,36.06
2016-03-14T12:29:56.929Z,36.35
2016-03-14T12:30:56.854Z,36.06
2016-03-14T12:31:57.168Z,36.06
2016-03-14T12:32:56.843Z,36.06
2016-03-14T12:39:29.409Z,36.06
2016-03-14T12:40:29.396Z,35.94
2016-03-14T12:41:29.383Z,35.85
2016-03-14T12:42:29.573Z,35.94
2016-03-14T12:43:29.388Z,36.24
2016-03-14T12:44:29.359Z,36.04
2016-03-14T12:45:29.377Z,35.85
2016-03-14T12:46:29.349Z,36.33
2016-03-14T12:47:29.321Z,35.85
2016-03-14T12:48:29.369Z,36.33
2016-03-14T12:49:29.279Z,36.33
2016-03-14T12:50:29.266Z,36.04
2016-03-14T12:51:29.253Z,35.75
2016-03-14T12:52:29.240Z,35.75
2016-03-14T12:53:29.228Z,35.94
2016-03-14T12:54:29.246Z,35.75
2016-03-14T12:55:29.201Z,35.44
2016-03-14T12:57:29.223Z,35.66
2016-03-14T12:58:29.351Z,35.85
2016-03-14T12:59:29.149Z,35.85
2016-03-14T13:00:29.215Z,36.04
2016-03-14T13:01:29.108Z,35.46
2016-03-14T13:02:29.111Z,35.36
2016-03-14T13:03:29.098Z,35.17
2016-03-14T13:04:29.084Z,35.36
2016-03-14T13:05:29.087Z,34.78
2016-03-14T13:06:29.387Z,34.78
2016-03-14T13:07:29.014Z,34.7
2016-03-14T13:08:29.112Z,34.61
2016-03-14T13:09:29.192Z,34.8
2016-03-14T13:10:29.008Z,34.31
2016-03-14T13:11:28.995Z,34.31
2016-03-14T13:12:28.966Z,34.12
2016-03-14T13:13:28.953Z,33.73
2016-03-14T13:14:28.955Z,33.54
2016-03-14T13:16:28.930Z,34.04
2016-03-14T13:17:28.902Z,33.36
2016-03-14T13:18:28.904Z,33.65
2016-03-14T13:19:28.922Z,33.65
2016-03-14T13:20:29.034Z,33.56
2016-03-14T13:21:28.865Z,33.65
2016-03-14T13:22:29.008Z,33.17
2016-03-14T13:23:28.838Z,33.17
2016-03-14T13:24:28.796Z,33.18
2016-03-14T13:25:28.923Z,33.17
2016-03-14T13:26:28.801Z,33.26
2016-03-14T13:27:28.771Z,33.17
2016-03-14T13:28:42.916Z,33.46
2016-03-14T13:29:31.730Z,33.46
2016-03-14T13:30:28.826Z,33.26
2016-03-14T13:31:28.720Z,33.17
2016-03-14T13:32:28.707Z,33.26
2016-03-14T13:33:28.804Z,33.07
2016-03-14T13:34:29.026Z,33.17
2016-03-14T13:35:28.668Z,33.17
2016-03-14T13:36:28.703Z,33.26
2016-03-14T13:37:28.751Z,33.07
2016-03-14T13:38:28.645Z,33.17
2016-03-14T13:39:28.632Z,33.75
2016-03-14T13:40:28.603Z,33.75
2016-03-14T13:41:28.576Z,33.26
2016-03-14T13:42:28.578Z,33.07
2016-03-14T13:43:28.550Z,33.26
2016-03-14T13:44:28.599Z,33.26
2016-03-14T13:45:28.523Z,33.36
2016-03-14T13:46:28.511Z,33.65
2016-03-14T13:47:28.528Z,33.17
2016-03-14T13:49:28.503Z,33.17
2016-03-14T13:50:28.459Z,33.26
2016-03-14T13:51:28.649Z,33.36
2016-03-14T13:52:28.433Z,33.36
2016-03-14T13:53:28.466Z,33.26
2016-03-14T13:54:28.455Z,33.26
2016-03-14T13:55:28.550Z,33.64
2016-03-14T13:56:31.396Z,33.25
2016-03-14T13:57:28.399Z,33.83
2016-03-14T13:58:28.449Z,33.25
2016-03-14T13:59:28.718Z,33.34
2016-03-14T14:00:28.360Z,33.15
2016-03-14T14:01:28.348Z,33.15
2016-03-14T14:02:28.334Z,33.25
2016-03-14T14:03:42.134Z,33.25
2016-03-14T14:04:28.481Z,33.25
2016-03-14T14:05:28.265Z,33.54
2016-03-14T14:06:28.601Z,33.73
2016-03-14T14:07:28.228Z,33.15
2016-03-14T14:08:28.199Z,34.12
2016-03-14T14:09:28.342Z,33.06
2016-03-14T14:10:28.627Z,33.34
2016-03-14T14:11:28.176Z,34.01
2016-03-14T14:12:28.195Z,33.54
2016-03-14T14:13:28.151Z,33.52
2016-03-14T14:14:28.153Z,34.01
2016-03-14T14:15:28.125Z,33.52
2016-03-14T14:16:28.174Z,33.62
2016-03-14T14:17:28.099Z,33.52
2016-03-14T14:18:28.055Z,33.81
2016-03-14T14:19:28.057Z,33.72
2016-03-14T14:20:28.044Z,34.11
2016-03-14T14:21:28.032Z,33.62
2016-03-14T14:22:28.035Z,33.42
2016-03-14T14:23:28.052Z,34.11
2016-03-14T14:24:27.993Z,33.52
2016-03-14T14:25:28.214Z,33.6
2016-03-14T14:26:28.748Z,34.11
2016-03-14T14:27:27.969Z,33.41
2016-03-14T14:28:27.940Z,33.41
2016-03-14T14:29:27.912Z,33.99
2016-03-14T14:30:27.899Z,33.22
2016-03-14T14:31:27.902Z,33.31
2016-03-14T14:32:27.890Z,33.22
2016-03-14T14:33:28.110Z,33.31
2016-03-14T14:34:28.192Z,33.41
2016-03-14T14:35:27.865Z,33.51
2016-03-14T14:36:27.837Z,33.6
2016-03-14T14:37:27.840Z,33.22
2016-03-14T14:38:27.984Z,33.22
2016-03-14T14:39:27.862Z,33.22
2016-03-14T14:40:28.067Z,33.31
2016-03-14T14:41:27.882Z,33.99
2016-03-14T14:42:28.431Z,33.6
2016-03-14T14:43:27.778Z,33.51
2016-03-14T14:44:27.765Z,33.51
2016-03-14T14:45:27.752Z,33.8
2016-03-14T14:46:27.677Z,33.51
2016-03-14T14:47:27.757Z,33.6
2016-03-14T14:49:27.622Z,32.94
2016-03-14T14:50:27.625Z,33.33
2016-03-14T14:51:27.613Z,33.14
2016-03-14T14:52:27.802Z,33.23
2016-03-14T14:53:27.789Z,33.14
2016-03-14T14:54:27.746Z,33.04
2016-03-14T14:55:27.576Z,32.84
2016-03-14T14:56:27.829Z,33.25
2016-03-14T14:57:27.549Z,32.57
2016-03-14T14:58:27.506Z,32.47
2016-03-14T14:59:27.493Z,32.57
2016-03-14T15:00:27.527Z,32.09
2016-03-14T15:01:28.124Z,32.09
2016-03-14T15:02:27.485Z,32.29
2016-03-14T15:03:27.550Z,32.29
2016-03-14T15:04:27.444Z,32.49
2016-03-14T15:05:27.462Z,32.29
2016-03-14T15:06:27.481Z,32.2
2016-03-14T15:07:27.764Z,28.8
2016-03-14T15:08:27.376Z,28.61
2016-03-14T15:09:27.707Z,28.72
2016-03-14T15:10:27.523Z,29.11
2016-03-14T15:11:27.462Z,29.6
2016-03-14T15:12:27.684Z,29.6
2016-03-14T15:13:27.343Z,29.69
2016-03-14T15:14:27.330Z,29.69
2016-03-14T15:15:27.473Z,30.18
2016-03-14T15:16:27.289Z,30.19
2016-03-14T15:17:27.447Z,29.9
2016-03-14T15:18:27.231Z,29.8
2016-03-14T15:19:27.297Z,30
2016-03-14T15:20:27.315Z,30.19
2016-03-14T15:21:27.239Z,30.19
2016-03-14T15:22:27.180Z,30.19
2016-03-14T15:23:27.510Z,30.19
2016-03-14T15:24:27.263Z,30.29
2016-03-14T15:25:27.219Z,30.29
2016-03-14T15:26:27.144Z,30.38
2016-03-14T15:27:27.130Z,30.58
2016-03-14T15:28:27.368Z,30.48
2016-03-14T15:29:27.339Z,30.59
2016-03-14T15:30:27.093Z,30.38
2016-03-14T15:31:27.063Z,30.59
2016-03-14T15:32:27.051Z,30.79
2016-03-14T15:33:27.054Z,30.79
2016-03-14T15:34:27.040Z,30.79
2016-03-14T15:35:27.027Z,30.77
2016-03-14T15:36:27.046Z,30.98
2016-03-14T15:37:26.986Z,30.68
2016-03-14T15:38:26.973Z,30.58
2016-03-14T15:39:26.975Z,30.48
2016-03-14T15:40:26.978Z,30.97
2016-03-14T15:41:26.934Z,31.26
2016-03-14T15:42:26.781Z,31.07
2016-03-14T15:43:27.096Z,30.87
2016-03-14T15:44:26.958Z,30.97
2016-03-14T15:45:26.976Z,31.26
2016-03-14T15:46:26.978Z,31.55
2016-03-14T15:47:26.919Z,31.16
2016-03-14T15:48:27.000Z,31.07
2016-03-14T15:49:26.898Z,31.45
2016-03-14T15:50:26.901Z,31.45
2016-03-14T15:51:26.966Z,31.65
2016-03-14T15:52:26.969Z,31.84
2016-03-14T15:53:27.019Z,32.12
2016-03-14T15:54:26.865Z,32.12
2016-03-14T15:55:26.851Z,32.21
2016-03-14T15:56:26.871Z,31.82
2016-03-14T15:57:26.732Z,32.31
2016-03-14T15:58:26.813Z,32.02
2016-03-14T15:59:40.518Z,32.21
2016-03-14T16:00:27.007Z,32.39
2016-03-14T16:01:25.962Z,32.2
2016-03-14T16:02:27.090Z,32.1
2016-03-14T16:03:26.842Z,32.29
2016-03-14T16:04:27.048Z,32.2
2016-03-14T16:05:26.863Z,32.2
2016-03-14T16:06:26.662Z,32.47
2016-03-14T16:08:26.743Z,32.28
2016-03-14T16:09:26.824Z,32.67
2016-03-14T16:10:26.796Z,32.37
2016-03-14T16:11:26.642Z,32.09
2016-03-14T16:12:26.614Z,32.96
2016-03-14T16:13:26.616Z,32.07
2016-03-14T16:14:26.526Z,32.09
2016-03-14T16:15:26.497Z,32.17
2016-03-14T16:16:26.484Z,31.97
2016-03-14T16:17:26.549Z,32.36
2016-03-14T16:18:26.473Z,32.46
2016-03-14T16:19:26.475Z,32.56
2016-03-14T16:20:40.575Z,32.36
2016-03-14T16:21:26.638Z,32.84
2016-03-14T16:22:26.406Z,32.94
2016-03-14T16:23:26.409Z,32.26
2016-03-14T16:24:26.568Z,32.34
2016-03-14T16:25:27.336Z,32.73
2016-03-14T16:26:26.652Z,32.73
2016-03-14T16:27:26.341Z,32.82
2016-03-14T16:28:26.563Z,32.73
2016-03-14T16:29:26.299Z,33.12
2016-03-14T16:30:26.271Z,32.92
2016-03-14T16:31:26.258Z,33.02
2016-03-14T16:32:26.246Z,33.02
2016-03-14T16:33:26.284Z,32.81
2016-03-14T16:34:26.240Z,32.91
2016-03-14T16:35:26.227Z,32.81
2016-03-14T16:36:26.183Z,33.01
2016-03-14T16:37:26.514Z,33.1
2016-03-14T16:38:26.157Z,33.2
2016-03-14T16:39:26.442Z,33.1
2016-03-14T16:40:26.147Z,33.01
2016-03-14T16:41:26.118Z,33.47
2016-03-14T16:42:26.120Z,33.18
2016-03-14T16:43:26.155Z,33.28
2016-03-14T16:45:00.067Z,33.18
2016-03-14T16:45:27.317Z,33.18
2016-03-14T16:47:26.056Z,33.28
2016-03-14T16:48:26.028Z,33.28
2016-03-14T16:49:26.046Z,33.18
2016-03-14T16:50:26.017Z,33.18
2016-03-14T16:51:26.036Z,33.18
2016-03-14T16:52:26.038Z,33.17
2016-03-14T16:53:26.025Z,33.18
2016-03-14T16:54:25.997Z,33.17
2016-03-14T16:55:26.046Z,33.26
2016-03-14T16:56:25.893Z,33.36
2016-03-14T16:57:25.927Z,33.17
2016-03-14T16:58:25.960Z,33.17
2016-03-14T16:59:25.902Z,33.17
2016-03-14T17:00:25.998Z,33.36
2016-03-14T17:01:25.939Z,33.07
2016-03-14T17:02:26.066Z,33.07
2016-03-14T17:03:25.819Z,32.68
2016-03-14T17:04:25.931Z,32.78
2016-03-14T17:05:25.809Z,33.25
2016-03-14T17:06:25.765Z,32.29
2016-03-14T17:07:25.753Z,32.47
2016-03-14T17:08:25.975Z,32.97
2016-03-14T17:09:25.758Z,32.18
2016-03-14T17:10:25.730Z,33.17
2016-03-14T17:11:25.670Z,32.09
2016-03-14T17:12:25.923Z,32.18
2016-03-14T17:13:26.066Z,32.18
2016-03-14T17:14:25.944Z,33.05
2016-03-14T17:15:25.634Z,32.09
2016-03-14T17:16:25.653Z,32.18
2016-03-14T17:17:26.109Z,32.67
2016-03-14T17:18:25.846Z,32.28
2016-03-14T17:19:25.693Z,32.76
2016-03-14T17:20:25.586Z,33.23
2016-03-14T17:21:25.526Z,32.65
2016-03-14T17:22:25.778Z,32.65
2016-03-14T17:23:25.516Z,32.65
2016-03-14T17:24:25.597Z,33.23
2016-03-14T17:25:25.568Z,32.84
2016-03-14T17:26:25.508Z,33.04
2016-03-14T17:27:25.495Z,33.14
2016-03-14T17:28:25.608Z,32.84
2016-03-14T17:29:25.547Z,32.84
2016-03-14T17:30:25.410Z,32.94
2016-03-14T17:31:25.397Z,32.84
2016-03-14T17:32:25.383Z,32.92
2016-03-14T17:33:25.371Z,32.73
2016-03-14T17:34:25.342Z,32.92
2016-03-14T17:35:25.314Z,32.92
2016-03-14T17:36:25.473Z,33.02
2016-03-14T17:37:28.382Z,33.12
2016-03-14T17:38:25.291Z,33.4
2016-03-14T17:39:25.263Z,33.02
2016-03-14T17:40:25.250Z,33.31
2016-03-14T17:41:25.455Z,32.92
2016-03-14T17:42:25.255Z,33.02
2016-03-14T17:43:25.430Z,32.92
2016-03-14T17:44:25.166Z,32.92
2016-03-14T17:45:25.169Z,32.91
2016-03-14T17:46:25.141Z,32.91
2016-03-14T17:47:24.643Z,32.81
2016-03-14T17:48:25.130Z,33.39
2016-03-14T17:49:25.118Z,33.2
2016-03-14T17:50:25.090Z,32.91
2016-03-14T17:51:25.092Z,33.1
2016-03-14T17:52:25.063Z,33
2016-03-14T17:53:25.065Z,32.62
2016-03-14T17:54:24.240Z,33
2016-03-14T17:55:25.056Z,33.1
2016-03-14T17:56:24.980Z,32.71
2016-03-14T17:57:25.062Z,33
2016-03-14T17:58:24.970Z,33.1
2016-03-14T17:59:24.957Z,33.1
2016-03-14T18:00:24.945Z,32.81
2016-03-14T18:01:24.915Z,33.37
2016-03-14T18:02:24.934Z,32.99
2016-03-14T18:03:24.906Z,32.79
2016-03-14T18:04:24.892Z,32.79
2016-03-14T18:05:24.067Z,32.6
2016-03-14T18:06:24.836Z,33.37
2016-03-14T18:07:25.056Z,33.09
2016-03-14T18:08:24.809Z,32.89
2016-03-14T18:09:24.984Z,32.89
2016-03-14T18:10:24.799Z,32.99
2016-03-14T18:11:24.771Z,32.99
2016-03-14T18:12:25.024Z,32.99
2016-03-14T18:13:24.838Z,33.09
2016-03-14T18:14:24.779Z,32.79
2016-03-14T18:15:24.718Z,32.6
2016-03-14T18:16:24.862Z,32.79
2016-03-14T18:17:24.678Z,32.99
2016-03-14T18:18:24.649Z,32.99
2016-03-14T18:19:24.682Z,33.09
2016-03-14T18:20:24.654Z,32.7
2016-03-14T18:21:24.782Z,32.68
2016-03-14T18:22:24.675Z,33.07
2016-03-14T18:23:24.584Z,32.78
2016-03-14T18:24:24.571Z,32.78
2016-03-14T18:25:38.355Z,33.36
2016-03-14T18:26:24.498Z,32.78
2016-03-14T18:27:24.501Z,32.97
2016-03-14T18:28:24.535Z,32.78
2016-03-14T18:29:24.476Z,33.65
2016-03-14T18:30:24.448Z,32.78
2016-03-14T18:31:24.465Z,32.68
2016-03-14T18:32:24.421Z,32.97
2016-03-14T18:33:24.470Z,32.68
2016-03-14T18:34:24.379Z,32.59
2016-03-14T18:35:24.492Z,32.97
2016-03-14T18:36:24.354Z,32.59
2016-03-14T18:37:24.372Z,32.97
2016-03-14T18:38:24.453Z,32.68
2016-03-14T18:39:25.034Z,32.87
2016-03-14T18:40:24.302Z,32.68
2016-03-14T18:42:24.400Z,32.68
2016-03-14T18:43:24.247Z,33.07
2016-03-14T18:44:23.703Z,32.97
2016-03-14T18:45:24.190Z,32.78
2016-03-14T18:46:24.193Z,32.78
2016-03-14T18:47:24.196Z,32.95
2016-03-14T18:48:24.261Z,33.53
2016-03-14T18:49:24.405Z,32.67
2016-03-14T18:50:24.142Z,33.34
2016-03-14T18:51:24.160Z,32.67
2016-03-14T18:52:24.100Z,32.95
2016-03-14T18:53:24.118Z,32.67
2016-03-14T18:54:24.168Z,32.95
2016-03-14T18:55:24.061Z,32.67
2016-03-14T18:56:24.064Z,32.95
2016-03-14T18:57:24.098Z,32.67
2016-03-14T18:58:24.162Z,32.76
2016-03-14T18:59:24.088Z,32.67
2016-03-14T19:00:24.074Z,32.67
2016-03-14T19:01:23.999Z,32.76
2016-03-14T19:02:24.048Z,32.76
2016-03-14T19:03:23.957Z,32.67
2016-03-14T19:04:23.960Z,32.67
2016-03-14T19:05:23.962Z,32.67
2016-03-14T19:06:24.060Z,32.67
2016-03-14T19:07:23.984Z,32.67
2016-03-14T19:08:23.862Z,33.34
2016-03-14T19:09:23.802Z,32.95
2016-03-14T19:10:23.789Z,33.05
2016-03-14T19:11:22.947Z,32.95
2016-03-14T19:12:23.763Z,32.95
2016-03-14T19:13:23.782Z,32.95
2016-03-14T19:14:23.706Z,32.95
2016-03-14T19:15:23.694Z,32.75
2016-03-14T19:17:23.667Z,33.33
2016-03-14T19:18:23.639Z,32.94
2016-03-14T19:19:23.626Z,32.86
2016-03-14T19:20:23.644Z,32.84
2016-03-14T19:21:23.694Z,32.94
2016-03-14T19:22:23.555Z,32.84
2016-03-14T19:23:23.558Z,32.94
2016-03-14T19:24:23.514Z,32.84
2016-03-14T19:25:23.548Z,32.75
2016-03-14T19:26:24.535Z,32.84
2016-03-14T19:27:23.510Z,32.84
2016-03-14T19:28:23.312Z,32.84
2016-03-14T19:29:23.495Z,32.84
2016-03-14T19:30:23.534Z,32.75
2016-03-14T19:31:23.712Z,32.94
2016-03-14T19:32:23.496Z,32.84
2016-03-14T19:33:23.373Z,32.84
2016-03-14T19:35:23.348Z,32.84
2016-03-14T19:36:23.336Z,32.84
2016-03-14T19:37:23.323Z,32.84
2016-03-14T19:38:37.513Z,32.94
2016-03-14T19:39:23.281Z,32.75
2016-03-14T19:40:23.267Z,32.84
2016-03-14T19:41:23.239Z,32.94
2016-03-14T19:42:23.242Z,32.84
2016-03-14T19:43:23.198Z,32.94
2016-03-14T19:44:23.185Z,32.94
2016-03-14T19:45:23.172Z,32.94
2016-03-14T19:46:23.408Z,33.13
2016-03-14T19:47:23.286Z,33.03
2016-03-14T19:48:23.149Z,32.84
2016-03-14T19:49:23.292Z,32.84
2016-03-14T19:50:36.905Z,33.13
2016-03-14T19:51:23.219Z,32.94
2016-03-14T19:52:23.160Z,32.73
2016-03-14T19:53:23.100Z,32.94
2016-03-14T19:55:23.027Z,33.13
2016-03-14T19:56:23.045Z,32.84
2016-03-14T19:57:22.985Z,32.84
2016-03-14T19:58:23.504Z,32.65
2016-03-14T19:59:22.943Z,32.84
2016-03-14T20:00:23.259Z,32.44
2016-03-14T20:01:22.903Z,32.64
2016-03-14T20:02:23.109Z,32.54
2016-03-14T20:03:22.892Z,33.02
2016-03-14T20:04:22.895Z,32.64
2016-03-14T20:05:22.867Z,32.92
2016-03-14T20:06:22.806Z,32.64
2016-03-14T20:07:22.872Z,32.64
2016-03-14T20:08:22.952Z,32.54
2016-03-14T20:09:22.783Z,32.54
2016-03-14T20:10:22.755Z,33.02
2016-03-14T20:11:22.742Z,32.54
2016-03-14T20:12:22.761Z,32.64
2016-03-14T20:13:22.951Z,32.64
2016-03-14T20:14:22.672Z,32.54
2016-03-14T20:15:22.691Z,32.54
2016-03-14T20:16:22.646Z,32.54
2016-03-14T20:17:22.633Z,32.64
2016-03-14T20:18:22.745Z,33.12
2016-03-14T20:19:22.638Z,32.54
2016-03-14T20:20:22.579Z,32.54
2016-03-14T20:21:22.706Z,32.54
2016-03-14T20:22:22.538Z,32.54
2016-03-14T20:23:22.790Z,32.54
2016-03-14T20:24:22.496Z,32.54
2016-03-14T20:25:22.717Z,32.44
2016-03-14T20:26:22.470Z,32.64
2016-03-14T20:27:22.535Z,32.15
2016-03-14T20:28:22.428Z,32.15
2016-03-14T20:29:22.432Z,32.15
2016-03-14T20:30:22.762Z,32.06
2016-03-14T20:31:22.826Z,32.15
2016-03-14T20:32:22.548Z,31.96
2016-03-14T20:33:22.379Z,32.06
2016-03-14T20:34:22.335Z,32.15
2016-03-14T20:35:22.322Z,32.34
2016-03-14T20:36:22.293Z,32.04
2016-03-14T20:37:22.296Z,32.06
2016-03-14T20:38:22.237Z,32.06
2016-03-14T20:39:22.223Z,32.9
2016-03-14T20:40:22.258Z,32.14
2016-03-14T20:41:22.229Z,32.06
2016-03-14T20:42:22.170Z,32.43
2016-03-14T20:43:22.391Z,32.33
2016-03-14T20:44:22.377Z,32.62
2016-03-14T20:45:22.554Z,32.04
2016-03-14T20:46:22.134Z,32.23
2016-03-14T20:47:22.090Z,32.23
2016-03-14T20:48:22.154Z,32.23
2016-03-14T20:49:22.096Z,32.23
2016-03-14T20:50:22.035Z,32.23
2016-03-14T20:51:22.053Z,32.33
2016-03-14T20:52:22.181Z,32.23
2016-03-14T20:53:22.012Z,32.23
2016-03-14T20:54:22.124Z,32.23
2016-03-14T20:55:22.048Z,32.14
2016-03-14T20:56:21.989Z,32.33
2016-03-14T20:57:21.913Z,32.33
2016-03-14T20:59:21.872Z,32.14
2016-03-14T21:00:21.858Z,32.23
2016-03-14T21:01:22.003Z,32.62
2016-03-14T21:02:21.804Z,32.14
2016-03-14T21:03:21.761Z,32.52
2016-03-14T21:04:21.844Z,32.23
2016-03-14T21:05:21.709Z,32.14
2016-03-14T21:06:21.942Z,32.33
2016-03-14T21:07:22.330Z,32.14
2016-03-14T21:08:21.639Z,32.23
2016-03-14T21:09:21.621Z,32.23
2016-03-14T21:10:21.588Z,32.23
2016-03-14T21:11:21.714Z,32.33
2016-03-14T21:12:21.591Z,32.33
2016-03-14T21:13:21.623Z,32.23
2016-03-14T21:14:21.515Z,32.23
2016-03-14T21:15:21.516Z,32.23
2016-03-14T21:16:21.487Z,32.23
2016-03-14T21:17:21.459Z,32.23
2016-03-14T21:18:21.460Z,32.33
2016-03-14T21:19:24.477Z,32.23
2016-03-14T21:20:21.432Z,32.33
2016-03-14T21:21:21.731Z,32.14
2016-03-14T21:22:21.406Z,32.33
2016-03-14T21:23:21.347Z,32.31
2016-03-14T21:24:21.412Z,32.52
2016-03-14T21:25:21.493Z,32.33
2016-03-14T21:26:21.324Z,32.33
2016-03-14T21:27:21.358Z,32.43
2016-03-14T21:28:21.282Z,32.43
2016-03-14T21:29:21.239Z,32.41
